createdAt,value
2018-06-20T00:01:29.435Z,89.87
2018-06-20T00:03:57.774Z,89.53
2018-06-20T00:06:26.144Z,89.35
2018-06-20T00:08:54.485Z,89.04
2018-06-20T00:11:24.480Z,89.35
2018-06-20T00:13:53.779Z,90.51
2018-06-20T00:16:22.118Z,91.13
2018-06-20T00:18:50.585Z,90.53
2018-06-20T00:21:18.919Z,90.07
2018-06-20T00:23:47.257Z,90.44
2018-06-20T00:26:15.607Z,90.31
2018-06-20T00:28:43.954Z,90.23
2018-06-20T00:31:13.193Z,90.34
2018-06-20T00:33:41.534Z,90.70
2018-06-20T00:36:09.878Z,91.96
2018-06-20T00:38:38.234Z,91.39
2018-06-20T00:41:06.642Z,91.10
2018-06-20T00:43:34.997Z,91.64
2018-06-20T00:46:03.480Z,92.29
2018-06-20T00:48:31.835Z,92.01
2018-06-20T00:51:00.179Z,91.96
2018-06-20T00:53:28.570Z,91.58
2018-06-20T00:56:08.265Z,92.38
2018-06-20T00:58:36.640Z,92.38
2018-06-20T01:01:05.008Z,92.86
2018-06-20T01:03:33.371Z,93.56
2018-06-20T01:06:01.721Z,94.05
2018-06-20T01:08:30.063Z,93.57
2018-06-20T01:10:58.456Z,93.49
2018-06-20T01:13:26.818Z,94.36
2018-06-20T01:15:55.162Z,94.32
2018-06-20T01:18:23.562Z,94.38
2018-06-20T01:20:51.906Z,94.38
2018-06-20T01:23:20.359Z,94.71
2018-06-20T01:25:50.192Z,94.84
2018-06-20T01:28:20.207Z,95.69
2018-06-20T01:30:50.550Z,95.27
2018-06-20T01:33:20.388Z,95.91
2018-06-20T01:35:49.668Z,96.30
2018-06-20T01:38:19.042Z,96.69
2018-06-20T01:40:48.291Z,95.73
2018-06-20T01:43:17.658Z,96.21
2018-06-20T01:45:46.922Z,96.17
2018-06-20T01:48:15.267Z,96.07
2018-06-20T01:50:44.452Z,96.07
2018-06-20T01:53:12.843Z,96.42
2018-06-20T01:55:42.178Z,96.71
2018-06-20T01:58:11.505Z,97.27
2018-06-20T02:00:40.888Z,97.22
2018-06-20T02:03:10.118Z,97.66
2018-06-20T02:05:38.491Z,97.71
2018-06-20T02:08:07.713Z,98.26
2018-06-20T02:10:36.931Z,97.52
2018-06-20T02:13:06.184Z,98.81
2018-06-20T02:15:34.566Z,98.71
2018-06-20T02:18:02.930Z,99.09
2018-06-20T02:20:31.302Z,98.67
2018-06-20T02:22:59.659Z,99.13
2018-06-20T02:25:28.036Z,100.00
2018-06-20T02:27:56.391Z,100.00
2018-06-20T02:30:24.731Z,99.85
2018-06-20T02:32:53.084Z,99.65
2018-06-20T02:35:21.431Z,98.50
2018-06-20T02:37:49.775Z,98.65
2018-06-20T02:40:18.127Z,98.69
2018-06-20T02:42:46.480Z,98.67
2018-06-20T02:45:15.735Z,99.56
2018-06-20T02:47:44.793Z,99.27
2018-06-20T02:50:14.063Z,99.41
2018-06-20T02:52:42.421Z,99.13
2018-06-20T02:55:10.894Z,98.81
2018-06-20T02:57:39.307Z,99.44
2018-06-20T03:00:07.669Z,99.46
2018-06-20T03:02:36.015Z,98.90
2018-06-20T03:05:04.610Z,98.57
2018-06-20T03:07:32.966Z,99.28
2018-06-20T03:10:01.317Z,99.61
2018-06-20T03:12:29.662Z,99.28
2018-06-20T03:14:58.013Z,99.52
2018-06-20T03:17:26.367Z,99.42
2018-06-20T03:19:54.714Z,99.79
2018-06-20T03:22:23.081Z,99.34
2018-06-20T03:24:51.443Z,98.85
2018-06-20T03:27:19.840Z,99.94
2018-06-20T03:29:48.197Z,99.78
2018-06-20T03:32:16.546Z,100.00
2018-06-20T03:34:44.905Z,99.56
2018-06-20T03:37:13.274Z,99.09
2018-06-20T03:39:41.627Z,99.02
2018-06-20T03:42:09.977Z,98.56
2018-06-20T03:44:39.210Z,98.21
2018-06-20T03:47:08.445Z,98.67
2018-06-20T03:49:36.797Z,98.04
2018-06-20T03:52:05.156Z,98.04
2018-06-20T03:54:33.946Z,96.47
2018-06-20T03:57:02.311Z,96.72
2018-06-20T03:59:30.667Z,96.69
2018-06-20T04:01:59.028Z,95.57
2018-06-20T04:04:27.386Z,94.13
2018-06-20T04:06:55.737Z,94.25
2018-06-20T04:09:24.095Z,95.28
2018-06-20T04:11:53.497Z,94.58
2018-06-20T04:14:22.744Z,94.99
2018-06-20T04:16:52.178Z,92.86
2018-06-20T04:19:20.527Z,91.93
2018-06-20T04:21:48.874Z,92.99
2018-06-20T04:24:17.222Z,92.45
2018-06-20T04:26:45.584Z,92.55
2018-06-20T04:29:13.967Z,92.04
2018-06-20T04:31:42.336Z,91.44
2018-06-20T04:34:10.701Z,88.13
2018-06-20T04:36:39.059Z,88.21
2018-06-20T04:39:08.976Z,88.63
2018-06-20T04:41:37.346Z,88.18
2018-06-20T04:44:05.725Z,88.27
2018-06-20T04:46:34.089Z,88.58
2018-06-20T04:49:02.489Z,88.93
2018-06-20T04:51:30.841Z,87.80
2018-06-20T04:54:01.011Z,87.05
2018-06-20T04:56:29.446Z,85.60
2018-06-20T04:58:57.813Z,83.70
2018-06-20T05:01:27.181Z,82.93
2018-06-20T05:03:56.567Z,84.94
2018-06-20T05:06:24.954Z,84.96
2018-06-20T05:08:53.326Z,82.97
2018-06-20T05:11:22.585Z,81.28
2018-06-20T05:13:51.818Z,79.08
2018-06-20T05:16:20.210Z,80.48
2018-06-20T05:18:48.566Z,75.93
2018-06-20T05:21:17.858Z,73.57
2018-06-20T05:23:46.199Z,69.51
2018-06-20T05:26:14.588Z,69.79
2018-06-20T05:28:43.937Z,70.68
2018-06-20T05:31:13.224Z,73.82
2018-06-20T05:33:42.486Z,70.23
2018-06-20T05:36:10.835Z,70.66
2018-06-20T05:38:39.215Z,70.02
2018-06-20T05:41:07.566Z,75.34
2018-06-20T05:43:36.678Z,72.78
2018-06-20T05:46:05.044Z,72.67
2018-06-20T05:48:33.475Z,70.93
2018-06-20T05:51:02.830Z,72.18
2018-06-20T05:53:31.540Z,72.32
2018-06-20T05:55:59.873Z,72.87
2018-06-20T05:58:29.271Z,71.87
2018-06-20T06:00:58.546Z,70.52
2018-06-20T06:03:26.878Z,70.66
2018-06-20T06:06:06.564Z,74.23
2018-06-20T06:08:35.910Z,72.73
2018-06-20T06:11:05.087Z,74.52
2018-06-20T06:13:34.342Z,72.29
2018-06-20T06:16:03.102Z,73.23
2018-06-20T06:18:32.446Z,75.22
2018-06-20T06:21:01.855Z,73.62
2018-06-20T06:23:31.238Z,73.89
2018-06-20T06:25:59.599Z,73.76
2018-06-20T06:28:29.185Z,74.25
2018-06-20T06:30:57.701Z,75.09
2018-06-20T06:33:26.044Z,71.94
2018-06-20T06:35:54.613Z,71.35
2018-06-20T06:38:23.978Z,70.75
2018-06-20T06:40:52.522Z,73.52
2018-06-20T06:43:20.895Z,70.00
2018-06-20T06:45:49.234Z,69.14
2018-06-20T06:48:17.567Z,68.08
2018-06-20T06:50:46.052Z,68.30
2018-06-20T06:53:14.490Z,67.81
2018-06-20T06:55:42.846Z,70.04
2018-06-20T06:58:11.198Z,69.39
2018-06-20T07:00:40.478Z,68.98
2018-06-20T07:03:08.835Z,68.48
2018-06-20T07:05:37.972Z,69.29
2018-06-20T07:08:06.305Z,70.76
2018-06-20T07:10:35.663Z,68.99
2018-06-20T07:13:04.005Z,66.56
2018-06-20T07:15:33.361Z,67.82
2018-06-20T07:18:01.726Z,68.23
2018-06-20T07:20:31.087Z,69.24
2018-06-20T07:22:59.431Z,68.60
2018-06-20T07:25:28.656Z,67.29
2018-06-20T07:27:56.985Z,68.70
2018-06-20T07:30:26.238Z,69.21
2018-06-20T07:32:54.573Z,68.07
2018-06-20T07:35:23.001Z,65.47
2018-06-20T07:37:52.278Z,64.56
2018-06-20T07:40:20.614Z,65.47
2018-06-20T07:42:49.958Z,63.81
2018-06-20T07:45:18.324Z,64.64
2018-06-20T07:47:47.503Z,64.26
2018-06-20T07:50:15.900Z,65.12
2018-06-20T07:52:44.250Z,64.45
2018-06-20T07:55:12.664Z,64.94
2018-06-20T07:57:41.731Z,63.41
2018-06-20T08:00:15.289Z,63.75
2018-06-20T08:03:00.226Z,62.33
2018-06-20T08:05:33.943Z,63.70
2018-06-20T08:08:08.482Z,63.19
2018-06-20T08:10:43.074Z,61.59
2018-06-20T08:13:17.593Z,61.99
2018-06-20T08:15:52.217Z,62.39
2018-06-20T08:18:25.784Z,61.09
2018-06-20T08:20:55.105Z,61.21
2018-06-20T08:23:23.453Z,60.33
2018-06-20T08:25:51.855Z,60.33
2018-06-20T08:28:20.183Z,61.17
2018-06-20T08:30:48.531Z,60.52
2018-06-20T08:33:16.886Z,61.79
2018-06-20T08:35:45.236Z,58.29
2018-06-20T08:38:13.590Z,61.79
2018-06-20T08:40:41.941Z,58.24
2018-06-20T08:43:10.316Z,59.84
2018-06-20T08:45:38.726Z,58.46
2018-06-20T08:48:07.130Z,58.87
2018-06-20T08:50:35.522Z,58.94
2018-06-20T08:53:03.912Z,61.50
2018-06-20T08:55:33.129Z,59.98
2018-06-20T08:58:02.417Z,61.61
2018-06-20T09:00:36.006Z,55.42
2018-06-20T09:03:04.382Z,55.02
2018-06-20T09:05:38.158Z,56.85
2018-06-20T09:08:12.858Z,57.32
2018-06-20T09:12:54.414Z,57.04
2018-06-20T09:15:28.062Z,56.21
2018-06-20T09:18:02.620Z,55.00
2018-06-20T09:20:31.022Z,54.88
2018-06-20T09:22:59.359Z,54.75
2018-06-20T09:25:27.694Z,53.77
2018-06-20T09:27:56.931Z,53.57
2018-06-20T09:30:26.273Z,54.71
2018-06-20T09:32:54.702Z,54.57
2018-06-20T09:35:23.039Z,52.53
2018-06-20T09:37:51.429Z,53.66
2018-06-20T09:40:19.768Z,54.22
2018-06-20T09:42:48.147Z,52.46
2018-06-20T09:45:17.386Z,54.92
2018-06-20T09:47:45.731Z,54.22
2018-06-20T09:50:20.315Z,53.70
2018-06-20T09:52:48.697Z,57.70
2018-06-20T09:55:17.955Z,53.97
2018-06-20T09:57:47.265Z,55.37
2018-06-20T10:00:21.786Z,55.79
2018-06-20T10:02:55.470Z,56.04
2018-06-20T10:05:30.122Z,54.01
2018-06-20T10:08:04.808Z,58.36
2018-06-20T10:10:39.481Z,59.62
2018-06-20T10:13:13.764Z,55.51
2018-06-20T10:15:42.960Z,55.13
2018-06-20T10:18:11.353Z,53.81
2018-06-20T10:20:40.604Z,50.90
2018-06-20T10:23:09.899Z,51.22
2018-06-20T10:25:39.130Z,52.14
2018-06-20T10:28:08.341Z,51.45
2018-06-20T10:30:37.690Z,52.47
2018-06-20T10:33:06.050Z,51.78
2018-06-20T10:35:34.434Z,51.11
2018-06-20T10:38:03.719Z,52.07
2018-06-20T10:40:32.102Z,50.20
2018-06-20T10:43:01.526Z,48.99
2018-06-20T10:45:35.183Z,51.01
2018-06-20T10:48:09.881Z,48.98
2018-06-20T10:50:38.962Z,50.42
2018-06-20T10:53:08.340Z,47.63
2018-06-20T10:55:38.838Z,51.97
2018-06-20T10:58:13.714Z,49.19
2018-06-20T11:00:47.732Z,51.71
2018-06-20T11:03:21.423Z,49.27
2018-06-20T11:05:55.122Z,49.07
2018-06-20T11:08:29.806Z,56.00
2018-06-20T11:11:04.420Z,51.00
2018-06-20T11:13:33.675Z,48.57
2018-06-20T11:16:02.946Z,45.52
2018-06-20T11:18:33.602Z,49.16
2018-06-20T11:21:02.005Z,52.03
2018-06-20T11:23:30.375Z,49.80
2018-06-20T11:25:58.738Z,49.21
2018-06-20T11:28:27.090Z,50.70
2018-06-20T11:30:55.462Z,52.41
2018-06-20T11:33:23.822Z,47.72
2018-06-20T11:35:52.204Z,49.17
2018-06-20T11:38:21.487Z,48.80
2018-06-20T11:40:50.299Z,49.01
2018-06-20T11:43:18.868Z,47.09
2018-06-20T11:45:52.530Z,47.09
2018-06-20T11:48:20.878Z,47.27
2018-06-20T11:50:49.249Z,46.55
2018-06-20T11:53:17.582Z,45.93
2018-06-20T11:55:47.026Z,47.37
2018-06-20T11:58:20.613Z,47.06
2018-06-20T12:00:54.254Z,48.82
2018-06-20T12:03:27.965Z,49.23
2018-06-20T12:06:01.641Z,51.06
2018-06-20T12:08:35.357Z,49.26
2018-06-20T12:11:08.954Z,47.88
2018-06-20T12:13:42.590Z,46.56
2018-06-20T12:16:24.047Z,46.40
2018-06-20T12:18:57.733Z,46.15
2018-06-20T12:21:31.546Z,43.93
2018-06-20T12:24:05.216Z,40.77
2018-06-20T12:26:38.817Z,41.40
2018-06-20T12:29:12.554Z,40.81
2018-06-20T12:31:46.151Z,41.10
2018-06-20T12:34:19.914Z,42.38
2018-06-20T12:36:53.630Z,40.50
2018-06-20T12:39:21.164Z,39.35
2018-06-20T12:41:54.977Z,41.05
2018-06-20T12:44:30.414Z,41.09
2018-06-20T12:47:01.356Z,41.45
2018-06-20T12:49:34.448Z,45.81
2018-06-20T12:52:03.709Z,41.28
2018-06-20T12:54:32.384Z,41.01
2018-06-20T12:57:01.735Z,46.38
2018-06-20T12:59:31.131Z,44.10
2018-06-20T13:01:59.491Z,42.02
2018-06-20T13:04:27.849Z,43.86
2018-06-20T13:06:56.198Z,40.45
2018-06-20T13:09:24.564Z,41.58
2018-06-20T13:11:53.906Z,40.54
2018-06-20T13:14:23.161Z,40.57
2018-06-20T13:16:51.513Z,40.10
2018-06-20T13:19:19.869Z,40.77
2018-06-20T13:21:48.232Z,42.10
2018-06-20T13:24:16.582Z,42.37
2018-06-20T13:26:45.842Z,38.96
2018-06-20T13:29:15.086Z,40.20
2018-06-20T13:31:49.778Z,41.40
2018-06-20T13:34:24.447Z,40.79
2018-06-20T13:36:59.090Z,40.45
2018-06-20T13:39:33.917Z,41.57
2018-06-20T13:42:08.778Z,41.04
2018-06-20T13:44:38.038Z,44.51
2018-06-20T13:47:12.707Z,40.88
2018-06-20T13:49:41.996Z,38.79
2018-06-20T13:52:11.212Z,38.75
2018-06-20T13:54:39.574Z,38.76
2018-06-20T13:57:08.948Z,41.59
2018-06-20T13:59:38.201Z,37.11
2018-06-20T14:02:07.504Z,39.76
2018-06-20T14:04:36.873Z,39.04
2018-06-20T14:07:06.159Z,39.92
2018-06-20T14:09:34.547Z,41.61
2018-06-20T14:12:04.712Z,39.47
2018-06-20T14:14:33.092Z,37.96
2018-06-20T14:17:02.365Z,38.21
2018-06-20T14:19:36.913Z,34.74
2018-06-20T14:22:06.335Z,36.93
2018-06-20T14:24:34.683Z,38.33
2018-06-20T14:27:04.065Z,34.71
2018-06-20T14:29:38.576Z,35.85
2018-06-20T14:32:13.287Z,37.82
2018-06-20T14:34:46.987Z,39.42
2018-06-20T14:37:20.665Z,38.41
2018-06-20T14:39:54.362Z,38.01
2018-06-20T14:42:29.014Z,38.91
2018-06-20T14:45:02.811Z,39.87
2018-06-20T14:47:31.227Z,39.93
2018-06-20T14:50:00.245Z,38.25
2018-06-20T14:52:28.645Z,37.90
2018-06-20T14:54:57.080Z,35.73
2018-06-20T14:57:26.451Z,35.37
2018-06-20T14:59:54.857Z,34.66
2018-06-20T15:02:23.219Z,33.47
2018-06-20T15:04:51.617Z,35.88
2018-06-20T15:07:21.014Z,34.04
2018-06-20T15:09:49.387Z,35.10
2018-06-20T15:12:18.832Z,33.88
2018-06-20T15:14:47.194Z,35.77
2018-06-20T15:17:20.940Z,36.95
2018-06-20T15:19:49.344Z,39.99
2018-06-20T15:22:18.674Z,40.65
2018-06-20T15:24:47.954Z,43.86
2018-06-20T15:27:21.442Z,36.62
2018-06-20T15:29:55.074Z,36.17
2018-06-20T15:32:28.772Z,36.60
2018-06-20T15:35:02.465Z,34.15
2018-06-20T15:37:36.156Z,35.31
2018-06-20T15:40:05.028Z,33.84
2018-06-20T15:42:33.421Z,33.77
2018-06-20T15:45:01.781Z,34.17
2018-06-20T15:47:30.233Z,35.99
2018-06-20T15:49:58.590Z,38.58
2018-06-20T15:52:27.885Z,37.32
2018-06-20T15:54:56.266Z,40.34
2018-06-20T15:57:24.652Z,41.52
2018-06-20T15:59:53.079Z,39.02
2018-06-20T16:02:21.546Z,41.33
2018-06-20T16:04:49.921Z,39.63
2018-06-20T16:07:18.287Z,43.68
2018-06-20T16:09:57.352Z,39.19
2018-06-20T16:12:26.254Z,42.53
2018-06-20T16:14:56.434Z,41.24
2018-06-20T16:17:26.034Z,42.27
2018-06-20T16:20:00.653Z,42.34
2018-06-20T16:22:34.396Z,41.99
2018-06-20T16:25:08.098Z,39.95
2018-06-20T16:29:47.459Z,41.95
2018-06-20T16:32:15.859Z,40.88
2018-06-20T16:34:45.115Z,43.54
2018-06-20T16:37:13.484Z,43.37
2018-06-20T16:39:42.845Z,40.79
2018-06-20T16:42:12.121Z,42.00
2018-06-20T16:44:40.533Z,42.38
2018-06-20T16:47:10.214Z,41.69
2018-06-20T16:49:39.527Z,42.31
2018-06-20T16:52:08.768Z,41.55
2018-06-20T16:54:38.074Z,42.48
2018-06-20T16:57:06.847Z,42.65
2018-06-20T16:59:36.184Z,43.29
2018-06-20T17:02:10.727Z,42.94
2018-06-20T17:04:40.135Z,44.68
2018-06-20T17:07:08.585Z,43.73
2018-06-20T17:09:37.863Z,44.81
2018-06-20T17:12:12.519Z,44.82
2018-06-20T17:14:46.159Z,45.40
2018-06-20T17:17:19.858Z,45.60
2018-06-20T17:19:54.566Z,47.17
2018-06-20T17:22:28.240Z,45.82
2018-06-20T17:25:01.962Z,44.69
2018-06-20T17:27:30.407Z,45.94
2018-06-20T17:29:58.757Z,45.20
2018-06-20T17:32:27.175Z,44.97
2018-06-20T17:34:55.823Z,44.80
2018-06-20T17:37:24.173Z,45.75
2018-06-20T17:39:52.535Z,44.71
2018-06-20T17:42:20.954Z,46.30
2018-06-20T17:44:49.310Z,46.38
2018-06-20T17:47:17.679Z,44.88
2018-06-20T17:49:46.102Z,44.93
2018-06-20T17:52:14.462Z,45.70
2018-06-20T17:54:42.835Z,45.27
2018-06-20T17:57:12.260Z,46.88
2018-06-20T17:59:41.558Z,45.40
2018-06-20T18:02:10.964Z,46.09
2018-06-20T18:04:44.717Z,46.55
2018-06-20T18:07:18.371Z,46.12
2018-06-20T18:09:52.182Z,47.93
2018-06-20T18:12:27.454Z,47.12
2018-06-20T18:15:01.170Z,47.56
2018-06-20T18:17:29.569Z,46.46
2018-06-20T18:19:57.963Z,47.50
2018-06-20T18:22:26.359Z,47.48
2018-06-20T18:24:54.844Z,47.38
2018-06-20T18:27:23.262Z,49.72
2018-06-20T18:29:51.668Z,49.59
2018-06-20T18:32:20.041Z,49.30
2018-06-20T18:34:48.423Z,50.20
2018-06-20T18:37:16.780Z,50.89
2018-06-20T18:39:51.586Z,51.76
2018-06-20T18:42:20.781Z,51.70
2018-06-20T18:44:50.168Z,52.06
2018-06-20T18:47:23.767Z,52.42
2018-06-20T18:49:52.627Z,54.12
2018-06-20T18:52:21.926Z,54.70
2018-06-20T18:54:51.176Z,54.38
2018-06-20T18:57:25.473Z,55.79
2018-06-20T18:59:59.167Z,56.37
2018-06-20T19:02:42.356Z,55.99
2018-06-20T19:05:16.080Z,56.22
2018-06-20T19:07:50.855Z,55.71
2018-06-20T19:10:19.223Z,56.48
2018-06-20T19:12:48.608Z,56.67
2018-06-20T19:15:17.007Z,56.85
2018-06-20T19:17:46.327Z,56.45
2018-06-20T19:20:14.724Z,57.20
2018-06-20T19:22:43.883Z,56.75
2018-06-20T19:25:12.239Z,57.14
2018-06-20T19:27:41.645Z,57.49
2018-06-20T19:30:10.916Z,57.62
2018-06-20T19:32:40.311Z,58.63
2018-06-20T19:35:09.560Z,59.41
2018-06-20T19:37:37.930Z,59.09
2018-06-20T19:40:07.310Z,59.82
2018-06-20T19:42:35.668Z,59.60
2018-06-20T19:45:04.125Z,61.25
2018-06-20T19:47:32.510Z,61.28
2018-06-20T19:50:01.771Z,62.08
2018-06-20T19:52:30.167Z,62.27
2018-06-20T19:54:58.526Z,63.60
2018-06-20T19:57:27.907Z,64.01
2018-06-20T19:59:56.318Z,63.92
2018-06-20T20:02:25.682Z,64.72
2018-06-20T20:04:55.110Z,64.05
2018-06-20T20:07:23.450Z,65.88
2018-06-20T20:09:51.901Z,65.34
2018-06-20T20:12:21.332Z,65.63
2018-06-20T20:14:49.749Z,66.23
2018-06-20T20:17:19.175Z,66.93
2018-06-20T20:19:47.541Z,66.52
2018-06-20T20:22:15.897Z,67.47
2018-06-20T20:24:44.252Z,67.37
2018-06-20T20:27:12.634Z,67.81
2018-06-20T20:29:40.986Z,68.47
2018-06-20T20:32:09.380Z,68.13
2018-06-20T20:34:37.761Z,67.84
2018-06-20T20:37:06.124Z,68.47
2018-06-20T20:39:34.500Z,67.62
2018-06-20T20:42:02.952Z,68.24
2018-06-20T20:44:33.621Z,69.37
2018-06-20T20:47:02.948Z,68.50
2018-06-20T20:49:32.407Z,69.76
2018-06-20T20:52:00.785Z,69.14
2018-06-20T20:54:29.143Z,69.53
2018-06-20T20:56:57.542Z,70.04
2018-06-20T20:59:25.907Z,70.08
2018-06-20T21:01:54.708Z,70.76
2018-06-20T21:04:23.054Z,70.69
2018-06-20T21:06:51.563Z,71.25
2018-06-20T21:09:20.090Z,71.87
2018-06-20T21:11:49.129Z,72.51
2018-06-20T21:14:17.514Z,71.53
2018-06-20T21:16:45.947Z,72.40
2018-06-20T21:19:14.338Z,72.18
2018-06-20T21:21:42.682Z,72.30
2018-06-20T21:24:11.034Z,73.21
2018-06-20T21:26:40.195Z,73.05
2018-06-20T21:29:08.603Z,73.40
2018-06-20T21:31:37.051Z,73.88
2018-06-20T21:34:05.411Z,73.02
2018-06-20T21:36:33.879Z,73.39
2018-06-20T21:39:02.265Z,73.91
2018-06-20T21:41:31.624Z,74.00
2018-06-20T21:44:00.894Z,74.31
2018-06-20T21:46:30.270Z,74.46
2018-06-20T21:48:58.630Z,74.93
2018-06-20T21:51:27.023Z,75.01
2018-06-20T21:53:55.369Z,76.07
2018-06-20T21:56:23.727Z,75.83
2018-06-20T21:58:52.098Z,76.07
2018-06-20T22:01:20.459Z,76.54
2018-06-20T22:03:48.871Z,78.19
2018-06-20T22:06:17.237Z,78.66
2018-06-20T22:08:45.596Z,79.77
2018-06-20T22:11:14.053Z,81.31
2018-06-20T22:13:42.422Z,83.05
2018-06-20T22:16:11.686Z,83.17
2018-06-20T22:18:40.104Z,83.16
2018-06-20T22:21:09.368Z,82.47
2018-06-20T22:23:38.789Z,82.15
2018-06-20T22:26:08.154Z,82.17
2018-06-20T22:28:36.516Z,81.58
2018-06-20T22:31:04.877Z,81.23
2018-06-20T22:33:33.258Z,81.71
2018-06-20T22:36:01.604Z,81.33
2018-06-20T22:38:29.993Z,81.88
2018-06-20T22:40:59.142Z,81.39
2018-06-20T22:43:27.491Z,80.95
2018-06-20T22:45:55.844Z,81.73
2018-06-20T22:48:24.212Z,80.91
2018-06-20T22:50:52.611Z,81.00
2018-06-20T22:53:20.984Z,80.29
2018-06-20T22:55:49.331Z,80.38
2018-06-20T22:58:17.692Z,80.53
2018-06-20T23:00:46.047Z,80.58
2018-06-20T23:03:14.415Z,80.38
2018-06-20T23:05:42.769Z,79.54
2018-06-20T23:08:11.167Z,79.72
2018-06-20T23:10:39.533Z,80.37
2018-06-20T23:13:08.006Z,80.54
2018-06-20T23:15:36.349Z,80.33
2018-06-20T23:18:04.997Z,80.25
2018-06-20T23:20:34.443Z,80.51
2018-06-20T23:23:03.135Z,80.66
2018-06-20T23:25:31.541Z,80.46
2018-06-20T23:28:00.799Z,80.37
2018-06-20T23:30:29.156Z,80.74
2018-06-20T23:32:57.522Z,80.66
2018-06-20T23:35:25.889Z,80.91
2018-06-20T23:37:55.260Z,81.26
2018-06-20T23:40:24.421Z,81.19
2018-06-20T23:42:52.823Z,81.50
2018-06-20T23:45:22.065Z,81.67
2018-06-20T23:47:50.433Z,82.15
2018-06-20T23:50:18.787Z,81.46
2018-06-20T23:52:47.125Z,82.35
2018-06-20T23:55:15.476Z,81.72
2018-06-20T23:57:43.846Z,83.29
